sensor_id;sensor_type;location;lat;lon;timestamp;temperature;humidity
71177;DHT22;58877;51.992;4.504;2022-07-10T00:00:39;15.63;68.96
71177;DHT22;58877;51.992;4.504;2022-07-10T00:03:06;15.51;69.17
71177;DHT22;58877;51.992;4.504;2022-07-10T00:05:32;15.54;69.29
71177;DHT22;58877;51.992;4.504;2022-07-10T00:08:00;15.50;69.40
71177;DHT22;58877;51.992;4.504;2022-07-10T00:10:26;15.59;69.40
71177;DHT22;58877;51.992;4.504;2022-07-10T00:12:54;15.66;68.98
71177;DHT22;58877;51.992;4.504;2022-07-10T00:15:20;15.70;68.82
71177;DHT22;58877;51.992;4.504;2022-07-10T00:17:47;15.67;68.70
71177;DHT22;58877;51.992;4.504;2022-07-10T00:20:16;15.67;68.64
71177;DHT22;58877;51.992;4.504;2022-07-10T00:22:42;15.64;68.67
71177;DHT22;58877;51.992;4.504;2022-07-10T00:25:11;15.54;68.96
71177;DHT22;58877;51.992;4.504;2022-07-10T00:27:39;15.46;69.32
71177;DHT22;58877;51.992;4.504;2022-07-10T00:30:06;15.57;68.81
71177;DHT22;58877;51.992;4.504;2022-07-10T00:32:32;15.51;68.83
71177;DHT22;58877;51.992;4.504;2022-07-10T00:34:57;15.44;69.26
71177;DHT22;58877;51.992;4.504;2022-07-10T00:37:23;15.33;69.60
71177;DHT22;58877;51.992;4.504;2022-07-10T00:39:49;15.39;69.42
71177;DHT22;58877;51.992;4.504;2022-07-10T00:42:17;15.38;69.46
71177;DHT22;58877;51.992;4.504;2022-07-10T00:44:44;15.39;69.38
71177;DHT22;58877;51.992;4.504;2022-07-10T00:47:11;15.44;69.42
71177;DHT22;58877;51.992;4.504;2022-07-10T00:49:39;15.44;69.53
71177;DHT22;58877;51.992;4.504;2022-07-10T00:52:12;15.40;69.45
71177;DHT22;58877;51.992;4.504;2022-07-10T00:54:40;15.42;69.47
71177;DHT22;58877;51.992;4.504;2022-07-10T00:57:07;15.40;69.49
71177;DHT22;58877;51.992;4.504;2022-07-10T00:59:37;15.32;69.70
71177;DHT22;58877;51.992;4.504;2022-07-10T01:02:04;15.33;69.96
71177;DHT22;58877;51.992;4.504;2022-07-10T01:04:33;15.36;69.86
71177;DHT22;58877;51.992;4.504;2022-07-10T01:06:59;15.32;69.93
71177;DHT22;58877;51.992;4.504;2022-07-10T01:09:26;15.29;69.83
71177;DHT22;58877;51.992;4.504;2022-07-10T01:11:55;15.26;69.92
71177;DHT22;58877;51.992;4.504;2022-07-10T01:14:22;15.33;69.62
71177;DHT22;58877;51.992;4.504;2022-07-10T01:16:49;15.39;69.49
71177;DHT22;58877;51.992;4.504;2022-07-10T01:19:15;15.46;69.63
71177;DHT22;58877;51.992;4.504;2022-07-10T01:21:40;15.49;69.11
71177;DHT22;58877;51.992;4.504;2022-07-10T01:24:08;15.49;69.11
71177;DHT22;58877;51.992;4.504;2022-07-10T01:26:35;15.44;69.32
71177;DHT22;58877;51.992;4.504;2022-07-10T01:29:06;15.42;69.54
71177;DHT22;58877;51.992;4.504;2022-07-10T01:31:32;15.40;69.55
71177;DHT22;58877;51.992;4.504;2022-07-10T01:34:05;15.36;69.58
71177;DHT22;58877;51.992;4.504;2022-07-10T01:36:32;15.40;69.39
71177;DHT22;58877;51.992;4.504;2022-07-10T01:39:03;15.42;69.45
71177;DHT22;58877;51.992;4.504;2022-07-10T01:41:29;15.43;69.48
71177;DHT22;58877;51.992;4.504;2022-07-10T01:43:55;15.32;69.90
71177;DHT22;58877;51.992;4.504;2022-07-10T01:46:21;15.32;70.16
71177;DHT22;58877;51.992;4.504;2022-07-10T01:48:49;15.22;70.53
71177;DHT22;58877;51.992;4.504;2022-07-10T01:51:15;15.19;70.78
71177;DHT22;58877;51.992;4.504;2022-07-10T01:53:41;15.20;70.69
71177;DHT22;58877;51.992;4.504;2022-07-10T01:56:13;15.20;70.41
71177;DHT22;58877;51.992;4.504;2022-07-10T01:58:39;15.18;70.57
71177;DHT22;58877;51.992;4.504;2022-07-10T02:01:08;15.22;70.90
71177;DHT22;58877;51.992;4.504;2022-07-10T02:03:35;15.25;70.75
71177;DHT22;58877;51.992;4.504;2022-07-10T02:06:19;15.18;70.86
71177;DHT22;58877;51.992;4.504;2022-07-10T02:08:45;15.15;70.97
71177;DHT22;58877;51.992;4.504;2022-07-10T02:11:14;15.16;70.99
71177;DHT22;58877;51.992;4.504;2022-07-10T02:13:40;15.08;71.39
71177;DHT22;58877;51.992;4.504;2022-07-10T02:16:06;15.10;71.39
71177;DHT22;58877;51.992;4.504;2022-07-10T02:18:31;15.16;71.18
71177;DHT22;58877;51.992;4.504;2022-07-10T02:20:58;15.19;71.08
71177;DHT22;58877;51.992;4.504;2022-07-10T02:23:23;15.18;71.42
71177;DHT22;58877;51.992;4.504;2022-07-10T02:25:49;15.18;71.64
71177;DHT22;58877;51.992;4.504;2022-07-10T02:28:15;15.20;72.16
71177;DHT22;58877;51.992;4.504;2022-07-10T02:30:41;15.30;71.93
71177;DHT22;58877;51.992;4.504;2022-07-10T02:33:07;15.44;70.88
71177;DHT22;58877;51.992;4.504;2022-07-10T02:35:33;15.33;70.59
71177;DHT22;58877;51.992;4.504;2022-07-10T02:37:58;15.16;71.39
71177;DHT22;58877;51.992;4.504;2022-07-10T02:40:27;15.06;71.90
71177;DHT22;58877;51.992;4.504;2022-07-10T02:42:53;14.95;72.44
71177;DHT22;58877;51.992;4.504;2022-07-10T02:45:18;14.96;72.59
71177;DHT22;58877;51.992;4.504;2022-07-10T02:47:44;14.91;72.84
71177;DHT22;58877;51.992;4.504;2022-07-10T02:50:10;14.89;73.06
71177;DHT22;58877;51.992;4.504;2022-07-10T02:52:35;14.88;73.30
71177;DHT22;58877;51.992;4.504;2022-07-10T02:55:01;14.91;73.37
71177;DHT22;58877;51.992;4.504;2022-07-10T02:57:26;14.95;73.44
71177;DHT22;58877;51.992;4.504;2022-07-10T02:59:53;14.95;73.47
71177;DHT22;58877;51.992;4.504;2022-07-10T03:02:19;14.89;73.67
71177;DHT22;58877;51.992;4.504;2022-07-10T03:04:44;14.92;73.84
71177;DHT22;58877;51.992;4.504;2022-07-10T03:07:10;14.99;73.78
71177;DHT22;58877;51.992;4.504;2022-07-10T03:09:36;14.99;73.68
71177;DHT22;58877;51.992;4.504;2022-07-10T03:12:01;14.99;73.78
71177;DHT22;58877;51.992;4.504;2022-07-10T03:14:27;15.02;73.95
71177;DHT22;58877;51.992;4.504;2022-07-10T03:16:53;15.05;73.76
71177;DHT22;58877;51.992;4.504;2022-07-10T03:19:18;15.13;73.62
71177;DHT22;58877;51.992;4.504;2022-07-10T03:21:44;15.20;73.36
71177;DHT22;58877;51.992;4.504;2022-07-10T03:24:11;15.28;73.10
71177;DHT22;58877;51.992;4.504;2022-07-10T03:26:39;15.30;73.11
71177;DHT22;58877;51.992;4.504;2022-07-10T03:29:05;15.30;73.08
71177;DHT22;58877;51.992;4.504;2022-07-10T03:31:30;15.38;73.01
71177;DHT22;58877;51.992;4.504;2022-07-10T03:33:57;15.42;72.91
71177;DHT22;58877;51.992;4.504;2022-07-10T03:36:25;15.42;72.95
71177;DHT22;58877;51.992;4.504;2022-07-10T03:38:52;15.43;73.33
71177;DHT22;58877;51.992;4.504;2022-07-10T03:41:17;15.47;73.29
71177;DHT22;58877;51.992;4.504;2022-07-10T03:43:43;15.53;73.09
71177;DHT22;58877;51.992;4.504;2022-07-10T03:46:09;15.60;72.80
71177;DHT22;58877;51.992;4.504;2022-07-10T03:48:35;15.70;72.92
71177;DHT22;58877;51.992;4.504;2022-07-10T03:51:01;15.80;72.68
71177;DHT22;58877;51.992;4.504;2022-07-10T03:53:27;15.73;72.46
71177;DHT22;58877;51.992;4.504;2022-07-10T03:55:53;15.67;72.73
71177;DHT22;58877;51.992;4.504;2022-07-10T03:58:20;15.67;72.63
71177;DHT22;58877;51.992;4.504;2022-07-10T04:00:46;15.80;72.47
71177;DHT22;58877;51.992;4.504;2022-07-10T04:03:11;15.89;72.32
71177;DHT22;58877;51.992;4.504;2022-07-10T04:05:39;15.91;72.39
71177;DHT22;58877;51.992;4.504;2022-07-10T04:08:05;15.93;72.42
71177;DHT22;58877;51.992;4.504;2022-07-10T04:10:31;15.94;72.22
71177;DHT22;58877;51.992;4.504;2022-07-10T04:12:58;16.03;72.37
71177;DHT22;58877;51.992;4.504;2022-07-10T04:15:26;15.96;72.41
71177;DHT22;58877;51.992;4.504;2022-07-10T04:17:55;15.96;72.63
71177;DHT22;58877;51.992;4.504;2022-07-10T04:20:30;15.94;72.43
71177;DHT22;58877;51.992;4.504;2022-07-10T04:25:42;16.04;72.12
71177;DHT22;58877;51.992;4.504;2022-07-10T04:28:07;16.10;72.10
71177;DHT22;58877;51.992;4.504;2022-07-10T04:30:33;16.17;71.74
71177;DHT22;58877;51.992;4.504;2022-07-10T04:32:58;16.17;71.97
71177;DHT22;58877;51.992;4.504;2022-07-10T04:35:24;16.03;72.34
71177;DHT22;58877;51.992;4.504;2022-07-10T04:37:49;15.97;72.85
71177;DHT22;58877;51.992;4.504;2022-07-10T04:40:15;15.96;72.80
71177;DHT22;58877;51.992;4.504;2022-07-10T04:42:40;15.93;73.13
71177;DHT22;58877;51.992;4.504;2022-07-10T04:45:06;15.90;73.29
71177;DHT22;58877;51.992;4.504;2022-07-10T04:47:31;15.98;73.12
71177;DHT22;58877;51.992;4.504;2022-07-10T04:49:57;16.08;72.80
71177;DHT22;58877;51.992;4.504;2022-07-10T04:52:22;16.03;73.16
71177;DHT22;58877;51.992;4.504;2022-07-10T04:54:48;16.11;73.10
71177;DHT22;58877;51.992;4.504;2022-07-10T04:57:13;16.20;73.12
71177;DHT22;58877;51.992;4.504;2022-07-10T04:59:39;16.22;72.64
71177;DHT22;58877;51.992;4.504;2022-07-10T05:02:05;16.31;72.71
71177;DHT22;58877;51.992;4.504;2022-07-10T05:04:30;16.41;72.25
71177;DHT22;58877;51.992;4.504;2022-07-10T05:06:56;16.49;72.10
71177;DHT22;58877;51.992;4.504;2022-07-10T05:09:21;16.65;71.53
71177;DHT22;58877;51.992;4.504;2022-07-10T05:11:47;16.72;71.35
71177;DHT22;58877;51.992;4.504;2022-07-10T05:14:13;16.72;71.37
71177;DHT22;58877;51.992;4.504;2022-07-10T05:16:38;16.71;71.27
71177;DHT22;58877;51.992;4.504;2022-07-10T05:19:04;16.73;71.43
71177;DHT22;58877;51.992;4.504;2022-07-10T05:21:29;16.80;71.24
71177;DHT22;58877;51.992;4.504;2022-07-10T05:23:55;16.85;71.14
71177;DHT22;58877;51.992;4.504;2022-07-10T05:26:21;16.85;71.05
71177;DHT22;58877;51.992;4.504;2022-07-10T05:28:46;16.90;70.95
71177;DHT22;58877;51.992;4.504;2022-07-10T05:31:12;17.06;70.68
71177;DHT22;58877;51.992;4.504;2022-07-10T05:33:37;17.15;70.23
71177;DHT22;58877;51.992;4.504;2022-07-10T05:36:06;17.15;69.79
71177;DHT22;58877;51.992;4.504;2022-07-10T05:38:32;17.23;69.90
71177;DHT22;58877;51.992;4.504;2022-07-10T05:40:58;17.26;69.32
71177;DHT22;58877;51.992;4.504;2022-07-10T05:43:23;17.30;69.46
71177;DHT22;58877;51.992;4.504;2022-07-10T05:45:49;17.19;69.35
71177;DHT22;58877;51.992;4.504;2022-07-10T05:48:14;17.23;69.10
71177;DHT22;58877;51.992;4.504;2022-07-10T05:50:40;17.29;69.02
71177;DHT22;58877;51.992;4.504;2022-07-10T05:53:06;17.26;68.86
71177;DHT22;58877;51.992;4.504;2022-07-10T05:55:31;17.22;69.07
71177;DHT22;58877;51.992;4.504;2022-07-10T05:57:57;17.22;69.04
71177;DHT22;58877;51.992;4.504;2022-07-10T06:00:25;17.27;69.00
71177;DHT22;58877;51.992;4.504;2022-07-10T06:02:51;17.49;68.74
71177;DHT22;58877;51.992;4.504;2022-07-10T06:05:16;17.36;68.61
71177;DHT22;58877;51.992;4.504;2022-07-10T06:07:42;17.29;68.78
71177;DHT22;58877;51.992;4.504;2022-07-10T06:10:08;17.46;68.45
71177;DHT22;58877;51.992;4.504;2022-07-10T06:12:33;17.44;68.19
71177;DHT22;58877;51.992;4.504;2022-07-10T06:14:59;17.39;68.43
71177;DHT22;58877;51.992;4.504;2022-07-10T06:17:25;17.37;68.40
71177;DHT22;58877;51.992;4.504;2022-07-10T06:19:54;17.49;67.76
71177;DHT22;58877;51.992;4.504;2022-07-10T06:22:23;17.57;67.33
71177;DHT22;58877;51.992;4.504;2022-07-10T06:25:02;17.55;67.76
71177;DHT22;58877;51.992;4.504;2022-07-10T06:27:28;17.49;68.08
71177;DHT22;58877;51.992;4.504;2022-07-10T06:29:55;17.59;68.20
71177;DHT22;58877;51.992;4.504;2022-07-10T06:32:21;17.77;67.80
71177;DHT22;58877;51.992;4.504;2022-07-10T06:34:47;17.51;68.72
71177;DHT22;58877;51.992;4.504;2022-07-10T06:37:13;17.67;68.47
71177;DHT22;58877;51.992;4.504;2022-07-10T06:39:38;17.94;67.57
71177;DHT22;58877;51.992;4.504;2022-07-10T06:42:07;17.98;67.10
71177;DHT22;58877;51.992;4.504;2022-07-10T06:44:33;18.00;67.83
71177;DHT22;58877;51.992;4.504;2022-07-10T06:46:59;18.08;67.74
71177;DHT22;58877;51.992;4.504;2022-07-10T06:49:45;18.15;66.99
71177;DHT22;58877;51.992;4.504;2022-07-10T06:52:11;18.17;66.40
71177;DHT22;58877;51.992;4.504;2022-07-10T06:54:37;18.37;65.71
71177;DHT22;58877;51.992;4.504;2022-07-10T06:57:04;18.42;66.44
71177;DHT22;58877;51.992;4.504;2022-07-10T06:59:30;18.53;65.61
71177;DHT22;58877;51.992;4.504;2022-07-10T07:01:56;18.27;66.48
71177;DHT22;58877;51.992;4.504;2022-07-10T07:04:21;17.91;66.93
71177;DHT22;58877;51.992;4.504;2022-07-10T07:06:47;18.08;66.34
71177;DHT22;58877;51.992;4.504;2022-07-10T07:09:12;18.09;66.76
71177;DHT22;58877;51.992;4.504;2022-07-10T07:11:38;18.08;66.81
71177;DHT22;58877;51.992;4.504;2022-07-10T07:14:03;18.15;65.98
71177;DHT22;58877;51.992;4.504;2022-07-10T07:16:29;18.48;65.13
71177;DHT22;58877;51.992;4.504;2022-07-10T07:19:09;18.73;64.87
71177;DHT22;58877;51.992;4.504;2022-07-10T07:21:37;18.24;66.19
71177;DHT22;58877;51.992;4.504;2022-07-10T07:24:21;18.28;66.10
71177;DHT22;58877;51.992;4.504;2022-07-10T07:26:48;18.28;65.52
71177;DHT22;58877;51.992;4.504;2022-07-10T07:29:17;18.48;65.30
71177;DHT22;58877;51.992;4.504;2022-07-10T07:31:43;18.52;65.27
71177;DHT22;58877;51.992;4.504;2022-07-10T07:34:10;18.59;64.64
71177;DHT22;58877;51.992;4.504;2022-07-10T07:36:36;18.62;64.34
71177;DHT22;58877;51.992;4.504;2022-07-10T07:39:02;18.60;64.86
71177;DHT22;58877;51.992;4.504;2022-07-10T07:41:28;18.96;63.94
71177;DHT22;58877;51.992;4.504;2022-07-10T07:43:54;19.23;62.91
71177;DHT22;58877;51.992;4.504;2022-07-10T07:46:19;18.72;63.81
71177;DHT22;58877;51.992;4.504;2022-07-10T07:48:46;18.93;64.12
71177;DHT22;58877;51.992;4.504;2022-07-10T07:51:11;19.06;62.81
71177;DHT22;58877;51.992;4.504;2022-07-10T07:53:43;19.28;63.05
71177;DHT22;58877;51.992;4.504;2022-07-10T07:56:22;19.12;63.58
71177;DHT22;58877;51.992;4.504;2022-07-10T07:59:10;18.93;64.13
71177;DHT22;58877;51.992;4.504;2022-07-10T08:02:15;18.92;64.56
71177;DHT22;58877;51.992;4.504;2022-07-10T08:05:00;18.98;63.91
71177;DHT22;58877;51.992;4.504;2022-07-10T08:07:49;18.86;64.29
71177;DHT22;58877;51.992;4.504;2022-07-10T08:10:25;18.72;64.90
71177;DHT22;58877;51.992;4.504;2022-07-10T08:13:23;18.68;65.05
71177;DHT22;58877;51.992;4.504;2022-07-10T08:16:02;19.00;64.88
71177;DHT22;58877;51.992;4.504;2022-07-10T08:18:38;19.41;63.65
71177;DHT22;58877;51.992;4.504;2022-07-10T08:21:29;19.46;62.59
71177;DHT22;58877;51.992;4.504;2022-07-10T08:24:18;18.96;64.14
71177;DHT22;58877;51.992;4.504;2022-07-10T08:26:51;19.27;63.49
71177;DHT22;58877;51.992;4.504;2022-07-10T08:29:23;19.51;63.22
71177;DHT22;58877;51.992;4.504;2022-07-10T08:31:51;19.47;62.75
71177;DHT22;58877;51.992;4.504;2022-07-10T08:34:24;19.19;63.18
71177;DHT22;58877;51.992;4.504;2022-07-10T08:37:09;19.13;63.81
71177;DHT22;58877;51.992;4.504;2022-07-10T08:39:55;19.43;63.22
71177;DHT22;58877;51.992;4.504;2022-07-10T08:42:31;19.04;63.14
71177;DHT22;58877;51.992;4.504;2022-07-10T08:45:30;19.00;63.97
71177;DHT22;58877;51.992;4.504;2022-07-10T08:48:22;18.89;63.86
71177;DHT22;58877;51.992;4.504;2022-07-10T08:51:24;19.22;63.88
71177;DHT22;58877;51.992;4.504;2022-07-10T08:54:14;19.34;63.16
71177;DHT22;58877;51.992;4.504;2022-07-10T08:56:44;19.17;63.51
71177;DHT22;58877;51.992;4.504;2022-07-10T08:59:14;19.43;62.56
71177;DHT22;58877;51.992;4.504;2022-07-10T09:01:42;19.67;62.48
71177;DHT22;58877;51.992;4.504;2022-07-10T09:04:26;19.55;61.65
71177;DHT22;58877;51.992;4.504;2022-07-10T09:07:08;19.23;63.09
71177;DHT22;58877;51.992;4.504;2022-07-10T09:09:58;19.68;61.92
71177;DHT22;58877;51.992;4.504;2022-07-10T09:12:26;19.73;62.51
71177;DHT22;58877;51.992;4.504;2022-07-10T09:15:15;19.50;63.14
71177;DHT22;58877;51.992;4.504;2022-07-10T09:18:06;19.61;63.23
71177;DHT22;58877;51.992;4.504;2022-07-10T09:20:51;19.88;61.75
71177;DHT22;58877;51.992;4.504;2022-07-10T09:26:14;19.54;62.30
71177;DHT22;58877;51.992;4.504;2022-07-10T09:28:42;19.67;61.33
71177;DHT22;58877;51.992;4.504;2022-07-10T09:31:16;19.64;61.08
71177;DHT22;58877;51.992;4.504;2022-07-10T09:33:52;19.97;60.41
71177;DHT22;58877;51.992;4.504;2022-07-10T09:36:22;19.92;61.02
71177;DHT22;58877;51.992;4.504;2022-07-10T09:38:54;19.89;60.12
71177;DHT22;58877;51.992;4.504;2022-07-10T09:41:31;19.88;60.27
71177;DHT22;58877;51.992;4.504;2022-07-10T09:44:03;19.61;61.51
71177;DHT22;58877;51.992;4.504;2022-07-10T09:46:41;19.79;61.00
71177;DHT22;58877;51.992;4.504;2022-07-10T09:49:18;19.70;61.23
71177;DHT22;58877;51.992;4.504;2022-07-10T09:51:52;19.40;61.35
71177;DHT22;58877;51.992;4.504;2022-07-10T09:54:29;19.88;59.36
71177;DHT22;58877;51.992;4.504;2022-07-10T09:57:05;19.78;58.11
71177;DHT22;58877;51.992;4.504;2022-07-10T09:59:43;20.21;56.81
71177;DHT22;58877;51.992;4.504;2022-07-10T10:02:29;20.19;58.09
71177;DHT22;58877;51.992;4.504;2022-07-10T10:05:06;20.04;56.86
71177;DHT22;58877;51.992;4.504;2022-07-10T10:07:46;19.89;57.65
71177;DHT22;58877;51.992;4.504;2022-07-10T10:10:35;19.78;57.21
71177;DHT22;58877;51.992;4.504;2022-07-10T10:13:11;20.15;57.08
71177;DHT22;58877;51.992;4.504;2022-07-10T10:15:39;20.46;56.88
71177;DHT22;58877;51.992;4.504;2022-07-10T10:18:05;20.32;57.70
71177;DHT22;58877;51.992;4.504;2022-07-10T10:20:36;20.25;57.20
71177;DHT22;58877;51.992;4.504;2022-07-10T10:23:17;20.14;58.64
71177;DHT22;58877;51.992;4.504;2022-07-10T10:25:44;20.28;57.78
71177;DHT22;58877;51.992;4.504;2022-07-10T10:28:12;20.26;57.42
71177;DHT22;58877;51.992;4.504;2022-07-10T10:30:48;20.45;57.31
71177;DHT22;58877;51.992;4.504;2022-07-10T10:36:04;20.49;57.20
71177;DHT22;58877;51.992;4.504;2022-07-10T10:41:30;20.30;58.42
71177;DHT22;58877;51.992;4.504;2022-07-10T10:46:34;20.99;56.22
71177;DHT22;58877;51.992;4.504;2022-07-10T10:49:07;20.82;56.38
71177;DHT22;58877;51.992;4.504;2022-07-10T10:52:02;20.42;56.64
71177;DHT22;58877;51.992;4.504;2022-07-10T10:54:29;20.28;56.75
71177;DHT22;58877;51.992;4.504;2022-07-10T11:02:30;20.97;54.87
71177;DHT22;58877;51.992;4.504;2022-07-10T11:07:57;20.28;55.30
71177;DHT22;58877;51.992;4.504;2022-07-10T11:10:27;20.29;55.32
71177;DHT22;58877;51.992;4.504;2022-07-10T11:13:12;20.49;55.49
71177;DHT22;58877;51.992;4.504;2022-07-10T11:15:49;20.50;53.42
71177;DHT22;58877;51.992;4.504;2022-07-10T11:18:19;20.60;54.38
71177;DHT22;58877;51.992;4.504;2022-07-10T11:20:49;20.76;54.39
71177;DHT22;58877;51.992;4.504;2022-07-10T11:25:52;21.26;50.51
71177;DHT22;58877;51.992;4.504;2022-07-10T11:28:52;21.17;51.79
71177;DHT22;58877;51.992;4.504;2022-07-10T11:31:20;21.34;50.63
71177;DHT22;58877;51.992;4.504;2022-07-10T11:33:48;21.16;50.75
71177;DHT22;58877;51.992;4.504;2022-07-10T11:36:16;21.24;51.47
71177;DHT22;58877;51.992;4.504;2022-07-10T11:38:44;21.47;51.08
71177;DHT22;58877;51.992;4.504;2022-07-10T11:44:16;21.61;49.65
71177;DHT22;58877;51.992;4.504;2022-07-10T11:47:03;21.59;48.51
71177;DHT22;58877;51.992;4.504;2022-07-10T11:50:49;21.58;48.21
71177;DHT22;58877;51.992;4.504;2022-07-10T12:48:06;21.82;50.04
71177;DHT22;58877;51.992;4.504;2022-07-10T12:51:29;21.98;49.74
71177;DHT22;58877;51.992;4.504;2022-07-10T13:04:39;22.12;50.84
71177;DHT22;58877;51.992;4.504;2022-07-10T13:08:03;22.33;51.75
71177;DHT22;58877;51.992;4.504;2022-07-10T13:11:04;22.43;51.69
71177;DHT22;58877;51.992;4.504;2022-07-10T13:13:45;22.25;51.32
71177;DHT22;58877;51.992;4.504;2022-07-10T13:20:17;22.84;50.81
71177;DHT22;58877;51.992;4.504;2022-07-10T13:37:29;22.45;53.07
71177;DHT22;58877;51.992;4.504;2022-07-10T13:46:39;22.97;52.28
71177;DHT22;58877;51.992;4.504;2022-07-10T13:49:23;22.83;52.46
71177;DHT22;58877;51.992;4.504;2022-07-10T13:52:12;22.38;53.65
71177;DHT22;58877;51.992;4.504;2022-07-10T13:55:37;22.45;53.66
71177;DHT22;58877;51.992;4.504;2022-07-10T14:02:39;22.55;53.80
71177;DHT22;58877;51.992;4.504;2022-07-10T14:12:43;22.09;55.77
71177;DHT22;58877;51.992;4.504;2022-07-10T14:26:49;22.87;53.46
71177;DHT22;58877;51.992;4.504;2022-07-10T14:40:31;22.96;53.15
71177;DHT22;58877;51.992;4.504;2022-07-10T14:47:05;22.80;54.37
71177;DHT22;58877;51.992;4.504;2022-07-10T14:53:43;22.84;54.11
71177;DHT22;58877;51.992;4.504;2022-07-10T15:04:13;23.43;52.98
71177;DHT22;58877;51.992;4.504;2022-07-10T15:07:08;23.54;53.01
71177;DHT22;58877;51.992;4.504;2022-07-10T15:23:29;23.31;52.75
71177;DHT22;58877;51.992;4.504;2022-07-10T15:32:27;22.93;54.77
71177;DHT22;58877;51.992;4.504;2022-07-10T15:41:50;23.00;55.41
71177;DHT22;58877;51.992;4.504;2022-07-10T15:44:19;22.66;55.70
71177;DHT22;58877;51.992;4.504;2022-07-10T15:46:45;22.57;56.60
71177;DHT22;58877;51.992;4.504;2022-07-10T15:49:12;22.63;56.55
71177;DHT22;58877;51.992;4.504;2022-07-10T15:51:38;22.38;56.96
71177;DHT22;58877;51.992;4.504;2022-07-10T15:54:03;22.22;57.61
71177;DHT22;58877;51.992;4.504;2022-07-10T15:56:29;22.05;57.65
71177;DHT22;58877;51.992;4.504;2022-07-10T15:58:55;22.11;58.15
71177;DHT22;58877;51.992;4.504;2022-07-10T16:01:21;22.28;57.75
71177;DHT22;58877;51.992;4.504;2022-07-10T16:03:47;21.95;58.28
71177;DHT22;58877;51.992;4.504;2022-07-10T16:06:14;21.73;59.29
71177;DHT22;58877;51.992;4.504;2022-07-10T16:08:47;21.95;58.24
71177;DHT22;58877;51.992;4.504;2022-07-10T16:11:15;22.12;58.38
71177;DHT22;58877;51.992;4.504;2022-07-10T16:13:41;22.02;58.81
71177;DHT22;58877;51.992;4.504;2022-07-10T16:16:07;21.89;59.50
71177;DHT22;58877;51.992;4.504;2022-07-10T16:18:36;22.12;59.43
71177;DHT22;58877;51.992;4.504;2022-07-10T16:21:23;21.89;60.00
71177;DHT22;58877;51.992;4.504;2022-07-10T16:24:23;21.55;61.25
71177;DHT22;58877;51.992;4.504;2022-07-10T16:27:05;21.23;61.58
71177;DHT22;58877;51.992;4.504;2022-07-10T16:30:06;21.37;62.11
71177;DHT22;58877;51.992;4.504;2022-07-10T16:35:28;21.19;63.32
71177;DHT22;58877;51.992;4.504;2022-07-10T16:38:05;20.99;63.85
71177;DHT22;58877;51.992;4.504;2022-07-10T16:40:35;20.82;64.97
71177;DHT22;58877;51.992;4.504;2022-07-10T16:46:18;20.84;65.36
71177;DHT22;58877;51.992;4.504;2022-07-10T16:48:53;20.80;65.63
71177;DHT22;58877;51.992;4.504;2022-07-10T16:51:28;20.94;65.69
71177;DHT22;58877;51.992;4.504;2022-07-10T16:54:00;21.16;65.27
71177;DHT22;58877;51.992;4.504;2022-07-10T16:56:32;20.82;66.28
71177;DHT22;58877;51.992;4.504;2022-07-10T16:59:23;20.99;66.42
71177;DHT22;58877;51.992;4.504;2022-07-10T17:02:25;20.92;66.93
71177;DHT22;58877;51.992;4.504;2022-07-10T17:04:53;21.30;65.61
71177;DHT22;58877;51.992;4.504;2022-07-10T17:07:19;21.92;63.74
71177;DHT22;58877;51.992;4.504;2022-07-10T17:09:45;22.92;60.73
71177;DHT22;58877;51.992;4.504;2022-07-10T17:12:10;23.17;60.13
71177;DHT22;58877;51.992;4.504;2022-07-10T17:14:36;22.89;59.15
71177;DHT22;58877;51.992;4.504;2022-07-10T17:17:01;22.87;59.20
71177;DHT22;58877;51.992;4.504;2022-07-10T17:19:28;23.04;59.20
71177;DHT22;58877;51.992;4.504;2022-07-10T17:21:54;23.28;58.08
71177;DHT22;58877;51.992;4.504;2022-07-10T17:24:20;22.97;58.85
71177;DHT22;58877;51.992;4.504;2022-07-10T17:26:46;23.26;57.92
71177;DHT22;58877;51.992;4.504;2022-07-10T17:29:11;22.92;58.35
71177;DHT22;58877;51.992;4.504;2022-07-10T17:31:37;23.59;56.26
71177;DHT22;58877;51.992;4.504;2022-07-10T17:34:03;23.47;55.78
71177;DHT22;58877;51.992;4.504;2022-07-10T17:36:28;23.16;56.44
71177;DHT22;58877;51.992;4.504;2022-07-10T17:38:55;23.58;55.49
71177;DHT22;58877;51.992;4.504;2022-07-10T17:41:20;23.59;55.27
71177;DHT22;58877;51.992;4.504;2022-07-10T17:43:46;23.37;56.20
71177;DHT22;58877;51.992;4.504;2022-07-10T17:46:11;23.37;56.45
71177;DHT22;58877;51.992;4.504;2022-07-10T17:48:37;23.65;56.28
71177;DHT22;58877;51.992;4.504;2022-07-10T17:51:03;23.62;55.69
71177;DHT22;58877;51.992;4.504;2022-07-10T17:53:38;23.14;56.64
71177;DHT22;58877;51.992;4.504;2022-07-10T17:56:16;23.30;56.79
71177;DHT22;58877;51.992;4.504;2022-07-10T17:58:49;23.67;55.64
71177;DHT22;58877;51.992;4.504;2022-07-10T18:01:38;23.17;55.91
71177;DHT22;58877;51.992;4.504;2022-07-10T18:04:36;23.04;57.01
71177;DHT22;58877;51.992;4.504;2022-07-10T18:07:15;23.07;56.37
71177;DHT22;58877;51.992;4.504;2022-07-10T18:09:51;22.76;54.94
71177;DHT22;58877;51.992;4.504;2022-07-10T18:12:16;23.08;54.47
71177;DHT22;58877;51.992;4.504;2022-07-10T18:14:42;23.28;54.19
71177;DHT22;58877;51.992;4.504;2022-07-10T18:17:10;22.97;54.74
71177;DHT22;58877;51.992;4.504;2022-07-10T18:19:38;23.04;54.26
71177;DHT22;58877;51.992;4.504;2022-07-10T18:22:03;22.74;55.59
71177;DHT22;58877;51.992;4.504;2022-07-10T18:24:29;22.87;55.83
71177;DHT22;58877;51.992;4.504;2022-07-10T18:26:55;23.16;55.28
71177;DHT22;58877;51.992;4.504;2022-07-10T18:29:20;22.41;56.54
71177;DHT22;58877;51.992;4.504;2022-07-10T18:31:47;22.94;56.21
71177;DHT22;58877;51.992;4.504;2022-07-10T18:34:13;22.99;56.60
71177;DHT22;58877;51.992;4.504;2022-07-10T18:36:57;22.50;56.38
71177;DHT22;58877;51.992;4.504;2022-07-10T18:39:24;22.32;57.08
71177;DHT22;58877;51.992;4.504;2022-07-10T18:41:49;21.34;60.18
71177;DHT22;58877;51.992;4.504;2022-07-10T18:44:16;20.99;60.72
71177;DHT22;58877;51.992;4.504;2022-07-10T18:46:42;20.84;61.71
71177;DHT22;58877;51.992;4.504;2022-07-10T18:49:08;20.77;61.84
71177;DHT22;58877;51.992;4.504;2022-07-10T18:51:33;20.62;62.48
71177;DHT22;58877;51.992;4.504;2022-07-10T18:53:59;20.56;62.95
71177;DHT22;58877;51.992;4.504;2022-07-10T18:56:25;20.45;63.85
71177;DHT22;58877;51.992;4.504;2022-07-10T18:58:50;20.30;64.57
71177;DHT22;58877;51.992;4.504;2022-07-10T19:01:16;20.29;65.08
71177;DHT22;58877;51.992;4.504;2022-07-10T19:03:44;20.15;65.31
71177;DHT22;58877;51.992;4.504;2022-07-10T19:06:09;20.18;65.44
71177;DHT22;58877;51.992;4.504;2022-07-10T19:08:35;20.08;66.33
71177;DHT22;58877;51.992;4.504;2022-07-10T19:11:00;20.09;66.76
71177;DHT22;58877;51.992;4.504;2022-07-10T19:13:26;20.07;66.88
71177;DHT22;58877;51.992;4.504;2022-07-10T19:15:52;20.09;66.60